^^
Your Local Weather - Clay, NY Station Historical Data
 
Daily Summary for August 15, 2018 Units:  English    Metric   Both
« Previous Day
Next Day »
Daily Weekly Monthly Yearly Custom
  Current: High: Low: Average:
Temperature: 84.9 °F 85.8 °F 65.4 °F 73.8 °F
Dew Point: 66.4 °F 74.1 °F 63.6 °F 67.5 °F
Humidity: 54% 94% 54% 82%
Wind Speed: 0mph 4mph 0mph 0.3mph
Wind Gust: 3mph 7mph - -
WindCalm - - West
Pressure: 29.84 in 29.86 in 29.79 in -
Precipitation: 0 in      
Historical Graphs
 
 
Tabular Data for August 15, 2018
Time Temperature Dew Point Pressure Wind Wind Speed Wind Gust Humidity Rainfall Rate (Hourly) solar
00:04 68.8 °F 66.7 °F 29.79 in Calm     93% 0 in 0.00 W/m2
00:08 68.7 °F 66.6 °F 29.80 in Calm     93% 0 in 0.00 W/m2
00:14 68.6 °F 66.5 °F 29.79 in Calm     93% 0 in 0.00 W/m2
00:18 68.3 °F 66.2 °F 29.80 in Calm     93% 0 in 0.00 W/m2
00:24 68.1 °F 66 °F 29.79 in Calm     93% 0 in 0.00 W/m2
00:28 67.9 °F 65.8 °F 29.79 in Calm     93% 0 in 0.00 W/m2
00:34 67.8 °F 65.7 °F 29.80 in Calm     93% 0 in 0.00 W/m2
00:38 67.7 °F 65.9 °F 29.80 in Calm     94% 0 in 0.00 W/m2
00:44 67.5 °F 65.7 °F 29.80 in Calm     94% 0 in 0.00 W/m2
00:48 67.5 °F 65.4 °F 29.80 in Calm     93% 0 in 0.00 W/m2
00:54 67.5 °F 65.4 °F 29.80 in Calm     93% 0 in 0.00 W/m2
00:58 67.6 °F 65.8 °F 29.80 in Calm     94% 0 in 0.00 W/m2
01:04 67.5 °F 65.7 °F 29.80 in Calm     94% 0 in 0.00 W/m2
01:08 67.4 °F 65.6 °F 29.80 in Calm     94% 0 in 0.00 W/m2
01:14 67.3 °F 65.5 °F 29.80 in Calm     94% 0 in 0.00 W/m2
01:18 67.2 °F 65.4 °F 29.80 in Calm     94% 0 in 0.00 W/m2
01:24 67.1 °F 65.3 °F 29.80 in Calm     94% 0 in 0.00 W/m2
01:28 67.2 °F 65.4 °F 29.80 in Calm     94% 0 in 0.00 W/m2
01:34 67.2 °F 65.4 °F 29.80 in Calm     94% 0 in 0.00 W/m2
01:38 67.4 °F 65.6 °F 29.81 in Calm     94% 0 in 0.00 W/m2
01:44 67.4 °F 65.6 °F 29.81 in Calm     94% 0 in 0.00 W/m2
01:48 67.5 °F 65.7 °F 29.80 in Calm     94% 0 in 0.00 W/m2
01:54 67.6 °F 65.8 °F 29.80 in Calm     94% 0 in 0.00 W/m2
01:58 67.7 °F 65.9 °F 29.80 in Calm     94% 0 in 0.00 W/m2
02:04 67.6 °F 65.8 °F 29.80 in Calm     94% 0 in 0.00 W/m2
02:08 67.5 °F 65.7 °F 29.80 in WSW 1 mph 1 mph 94% 0 in 0.00 W/m2
02:14 67.4 °F 65.6 °F 29.81 in Calm   1 mph 94% 0 in 0.00 W/m2
02:18 67.3 °F 65.5 °F 29.80 in Calm   1 mph 94% 0 in 0.00 W/m2
02:24 67.2 °F 65.4 °F 29.80 in Calm     94% 0 in 0.00 W/m2
02:28 67.2 °F 65.4 °F 29.80 in Calm     94% 0 in 0.00 W/m2
02:34 67.2 °F 65.4 °F 29.80 in Calm   2 mph 94% 0 in 0.00 W/m2
02:38 67.1 °F 65.3 °F 29.80 in Calm   2 mph 94% 0 in 0.00 W/m2
02:44 67 °F 65.2 °F 29.80 in Calm     94% 0 in 0.00 W/m2
02:48 66.9 °F 65.1 °F 29.80 in Calm   2 mph 94% 0 in 0.00 W/m2
02:54 66.9 °F 65.1 °F 29.80 in Calm     94% 0 in 0.00 W/m2
02:58 66.8 °F 65 °F 29.80 in Calm     94% 0 in 0.00 W/m2
03:04 66.6 °F 64.8 °F 29.80 in Calm     94% 0 in 0.00 W/m2
03:08 66.6 °F 64.8 °F 29.80 in Calm     94% 0 in 0.00 W/m2
03:14 66.5 °F 64.7 °F 29.80 in Calm     94% 0 in 0.00 W/m2
03:18 66.5 °F 64.7 °F 29.80 in Calm     94% 0 in 0.00 W/m2
03:24 66.5 °F 64.7 °F 29.80 in Calm     94% 0 in 0.00 W/m2
03:28 66.5 °F 64.7 °F 29.80 in Calm     94% 0 in 0.00 W/m2
03:34 66.4 °F 64.6 °F 29.80 in Calm   2 mph 94% 0 in 0.00 W/m2
03:38 66.4 °F 64.6 °F 29.80 in Calm   2 mph 94% 0 in 0.00 W/m2
03:44 66.3 °F 64.5 °F 29.80 in Calm   2 mph 94% 0 in 0.00 W/m2
03:48 66.3 °F 64.5 °F 29.80 in Calm   2 mph 94% 0 in 0.00 W/m2
03:54 66.2 °F 64.4 °F 29.80 in Calm     94% 0 in 0.00 W/m2
03:58 66.2 °F 64.4 °F 29.80 in Calm   1 mph 94% 0 in 0.00 W/m2
04:04 66.1 °F 64.3 °F 29.80 in Calm     94% 0 in 0.00 W/m2
04:08 66 °F 64.2 °F 29.80 in Calm     94% 0 in 0.00 W/m2
04:14 66 °F 64.2 °F 29.80 in Calm     94% 0 in 0.00 W/m2
04:18 66 °F 64.2 °F 29.80 in Calm     94% 0 in 0.00 W/m2
04:24 65.9 °F 64.1 °F 29.80 in Calm   2 mph 94% 0 in 0.00 W/m2
04:28 65.9 °F 64.1 °F 29.80 in Calm   2 mph 94% 0 in 0.00 W/m2
04:34 65.8 °F 64 °F 29.80 in Calm     94% 0 in 0.00 W/m2
04:38 65.7 °F 63.9 °F 29.80 in Calm     94% 0 in 0.00 W/m2
04:44 65.7 °F 63.9 °F 29.80 in Calm     94% 0 in 0.00 W/m2
04:48 65.7 °F 63.9 °F 29.80 in Calm     94% 0 in 0.00 W/m2
04:54 65.7 °F 63.9 °F 29.81 in Calm     94% 0 in 0.00 W/m2
04:58 65.7 °F 63.9 °F 29.81 in Calm     94% 0 in 0.00 W/m2
05:04 65.7 °F 63.9 °F 29.81 in Calm     94% 0 in 0.00 W/m2
05:08 65.8 °F 64 °F 29.81 in Calm     94% 0 in 0.00 W/m2
05:14 65.7 °F 63.9 °F 29.81 in Calm     94% 0 in 0.00 W/m2
05:18 65.7 °F 63.9 °F 29.81 in Calm     94% 0 in 0.00 W/m2
05:24 65.7 °F 63.9 °F 29.81 in Calm     94% 0 in 0.00 W/m2
05:28 65.7 °F 63.9 °F 29.81 in Calm   1 mph 94% 0 in 0.00 W/m2
05:34 65.6 °F 63.8 °F 29.81 in Calm     94% 0 in 0.00 W/m2
05:38 65.6 °F 63.8 °F 29.81 in Calm     94% 0 in 0.00 W/m2
05:44 65.5 °F 63.7 °F 29.82 in Calm     94% 0 in 0.00 W/m2
05:48 65.5 °F 63.7 °F 29.82 in Calm     94% 0 in 0.00 W/m2
05:54 65.5 °F 63.7 °F 29.82 in Calm   1 mph 94% 0 in 0.00 W/m2
05:58 65.4 °F 63.6 °F 29.82 in Calm   1 mph 94% 0 in 0.00 W/m2
06:04 65.4 °F 63.6 °F 29.82 in Calm     94% 0 in 0.00 W/m2
06:08 65.4 °F 63.6 °F 29.82 in Calm     94% 0 in 0.00 W/m2
06:14 65.4 °F 63.6 °F 29.82 in Calm     94% 0 in 0.00 W/m2
06:18 65.4 °F 63.6 °F 29.82 in Calm     94% 0 in 5.00 W/m2
06:24 65.5 °F 63.7 °F 29.83 in Calm     94% 0 in 7.00 W/m2
06:28 65.5 °F 63.7 °F 29.83 in Calm     94% 0 in 9.00 W/m2
06:34 65.5 °F 63.7 °F 29.83 in Calm     94% 0 in 14.00 W/m2
06:38 65.5 °F 63.7 °F 29.83 in Calm     94% 0 in 18.00 W/m2
06:44 65.5 °F 63.7 °F 29.83 in Calm     94% 0 in 23.00 W/m2
06:48 65.5 °F 63.7 °F 29.83 in Calm     94% 0 in 28.00 W/m2
06:54 65.5 °F 63.7 °F 29.83 in Calm     94% 0 in 32.00 W/m2
06:58 65.6 °F 63.8 °F 29.83 in Calm     94% 0 in 42.00 W/m2
07:04 65.8 °F 64 °F 29.83 in Calm     94% 0 in 65.00 W/m2
07:08 66 °F 64.2 °F 29.83 in Calm   1 mph 94% 0 in 76.00 W/m2
07:14 66.2 °F 64.4 °F 29.84 in Calm     94% 0 in 84.00 W/m2
07:18 66.4 °F 64.6 °F 29.84 in Calm     94% 0 in 97.00 W/m2
07:24 66.6 °F 64.8 °F 29.84 in Calm     94% 0 in 107.00 W/m2
07:28 66.7 °F 64.9 °F 29.84 in Calm     94% 0 in 116.00 W/m2
07:34 66.9 °F 65.1 °F 29.84 in Calm     94% 0 in 127.00 W/m2
07:38 67.1 °F 65.3 °F 29.84 in Calm   1 mph 94% 0 in 137.00 W/m2
07:44 67.3 °F 65.5 °F 29.84 in Calm     94% 0 in 153.00 W/m2
07:48 67.6 °F 65.8 °F 29.84 in Calm     94% 0 in 162.00 W/m2
07:54 67.9 °F 66.1 °F 29.85 in Calm     94% 0 in 163.00 W/m2
07:58 68.1 °F 66 °F 29.85 in Calm   1 mph 93% 0 in 84.00 W/m2
08:04 68.5 °F 66.4 °F 29.85 in Calm   3 mph 93% 0 in 98.00 W/m2
08:08 68.7 °F 66.6 °F 29.85 in Calm   3 mph 93% 0 in 121.00 W/m2
08:14 69.1 °F 66.7 °F 29.85 in Calm   1 mph 92% 0 in 100.00 W/m2
08:18 69.4 °F 67 °F 29.85 in Calm   1 mph 92% 0 in 118.00 W/m2
08:24 69.8 °F 67.1 °F 29.85 in Calm     91% 0 in 134.00 W/m2
08:28 70 °F 66.9 °F 29.85 in Calm     90% 0 in 93.00 W/m2
08:34 70.4 °F 67.3 °F 29.85 in Calm   3 mph 90% 0 in 127.00 W/m2
08:38 70.7 °F 67.3 °F 29.85 in Calm   3 mph 89% 0 in 183.00 W/m2
08:44 71 °F 67.3 °F 29.86 in Calm     88% 0 in 188.00 W/m2
08:48 71.2 °F 67.1 °F 29.86 in Calm   2 mph 87% 0 in 128.00 W/m2
08:54 71.3 °F 67.2 °F 29.86 in Calm     87% 0 in 169.00 W/m2
08:58 71.6 °F 67.5 °F 29.86 in Calm     87% 0 in 137.00 W/m2
09:04 71.8 °F 67.4 °F 29.86 in Calm     86% 0 in 185.00 W/m2
09:08 72.1 °F 67.7 °F 29.85 in Calm     86% 0 in 220.00 W/m2
09:14 72.6 °F 68.2 °F 29.86 in Calm   1 mph 86% 0 in 336.00 W/m2
09:18 72.8 °F 67.7 °F 29.86 in Calm   1 mph 84% 0 in 450.00 W/m2
09:24 73.4 °F 68.3 °F 29.86 in Calm     84% 0 in 497.00 W/m2
09:28 73.7 °F 68.2 °F 29.86 in Calm     83% 0 in 476.00 W/m2
09:34 74 °F 68.5 °F 29.86 in Calm     83% 0 in 218.00 W/m2
09:38 74.3 °F 68.4 °F 29.86 in Calm   1 mph 82% 0 in 543.00 W/m2
09:44 74.7 °F 68.8 °F 29.86 in Calm     82% 0 in 552.00 W/m2
09:48 75.1 °F 68.5 °F 29.86 in WSW 1 mph 1 mph 80% 0 in 561.00 W/m2
09:54 75.3 °F 69.1 °F 29.86 in SW 1 mph 3 mph 81% 0 in 403.00 W/m2
09:58 75.3 °F 68.3 °F 29.86 in Calm   3 mph 79% 0 in 214.00 W/m2
10:04 75.6 °F 69 °F 29.86 in Calm     80% 0 in 577.00 W/m2
10:08 76 °F 69.4 °F 29.86 in Calm   1 mph 80% 0 in 624.00 W/m2
10:14 76.8 °F 69 °F 29.86 in Calm     77% 0 in 485.00 W/m2
10:18 77 °F 68.9 °F 29.86 in Calm   4 mph 76% 0 in 612.00 W/m2
10:24 77.5 °F 70.1 °F 29.86 in Calm   2 mph 78% 0 in 628.00 W/m2
10:28 77.8 °F 69.2 °F 29.86 in Calm   2 mph 75% 0 in 640.00 W/m2
10:34 78.6 °F 70 °F 29.86 in Calm   4 mph 75% 0 in 650.00 W/m2
10:38 78.7 °F 69.7 °F 29.86 in Calm   4 mph 74% 0 in 663.00 W/m2
10:44 79.4 °F 70.8 °F 29.86 in Calm     75% 0 in 673.00 W/m2
10:48 79.6 °F 71 °F 29.86 in Calm     75% 0 in 687.00 W/m2
10:54 79.2 °F 69.8 °F 29.86 in Calm     73% 0 in 696.00 W/m2
10:58 79 °F 69.2 °F 29.86 in Calm     72% 0 in 708.00 W/m2
11:04 80.1 °F 70.7 °F 29.86 in Calm     73% 0 in 714.00 W/m2
11:08 79.3 °F 69.1 °F 29.86 in WSW 1 mph 2 mph 71% 0 in 726.00 W/m2
11:14 79 °F 69.2 °F 29.86 in SSW 2 mph 2 mph 72% 0 in 744.00 W/m2
11:18 79.3 °F 70.3 °F 29.86 in SW 1 mph 2 mph 74% 0 in 742.00 W/m2
11:22 80.2 °F 69.9 °F 29.86 in SW 1 mph 1 mph 71% 0 in 749.00 W/m2
11:28 80.5 °F 71.4 °F 29.86 in Calm   3 mph 74% 0 in 831.00 W/m2
11:34 80.6 °F 71.1 °F 29.86 in WNW 1 mph 1 mph 73% 0 in 657.00 W/m2
11:38 80.3 °F 70 °F 29.86 in WSW 1 mph 1 mph 71% 0 in 520.00 W/m2
11:44 80.1 °F 69.8 °F 29.86 in SW 1 mph 4 mph 71% 0 in 838.00 W/m2
11:48 80.8 °F 72.5 °F 29.86 in Calm   4 mph 76% 0 in 939.00 W/m2
11:54 81.6 °F 72.5 °F 29.86 in Calm   1 mph 74% 0 in 965.00 W/m2
11:58 81 °F 70.7 °F 29.86 in Calm   2 mph 71% 0 in 635.00 W/m2
12:04 80.3 °F 69.2 °F 29.86 in SW 1 mph 6 mph 69% 0 in 381.00 W/m2
12:08 79.7 °F 70.3 °F 29.86 in WNW 1 mph 6 mph 73% 0 in 506.00 W/m2
12:14 80.5 °F 71.4 °F 29.86 in Calm   1 mph 74% 0 in 499.00 W/m2
12:18 80.7 °F 70.4 °F 29.86 in Calm   1 mph 71% 0 in 374.00 W/m2
12:24 80.3 °F 70.9 °F 29.86 in Calm     73% 0 in 563.00 W/m2
12:28 80.7 °F 71.6 °F 29.86 in Calm     74% 0 in 563.00 W/m2
12:34 81.1 °F 70.4 °F 29.86 in Calm   3 mph 70% 0 in 408.00 W/m2
12:38 80.8 °F 70.9 °F 29.86 in Calm   3 mph 72% 0 in 812.00 W/m2
12:44 81.5 °F 71.6 °F 29.86 in Calm     72% 0 in 838.00 W/m2
12:48 81.7 °F 71.4 °F 29.86 in SW 1 mph 1 mph 71% 0 in 838.00 W/m2
12:54 82 °F 71.7 °F 29.86 in SW 1 mph 4 mph 71% 0 in 956.00 W/m2
12:58 81.5 °F 70.8 °F 29.86 in SSW 1 mph 6 mph 70% 0 in 810.00 W/m2
13:04 82.3 °F 72.4 °F 29.86 in SW 1 mph 3 mph 72% 0 in 512.00 W/m2
13:08 81.9 °F 71.6 °F 29.86 in West 1 mph 3 mph 71% 0 in 190.00 W/m2
13:14 81.1 °F 71.6 °F 29.86 in SW 1 mph 3 mph 73% 0 in 847.00 W/m2
13:18 81.6 °F 71.3 °F 29.86 in WSW 2 mph 6 mph 71% 0 in 800.00 W/m2
13:24 81.3 °F 71 °F 29.86 in SSW 3 mph 5 mph 71% 0 in 882.00 W/m2
13:28 81.6 °F 71.7 °F 29.86 in SW 4 mph 7 mph 72% 0 in 888.00 W/m2
13:34 82.3 °F 71.5 °F 29.86 in WSW 3 mph 5 mph 70% 0 in 849.00 W/m2
13:38 82.3 °F 70.7 °F 29.86 in SSW 2 mph 5 mph 68% 0 in 916.00 W/m2
13:44 82.7 °F 73.2 °F 29.86 in SW 2 mph 3 mph 73% 0 in 837.00 W/m2
13:48 82.9 °F 72.1 °F 29.86 in WNW 2 mph 3 mph 70% 0 in 301.00 W/m2
13:54 82.6 °F 71 °F 29.86 in WSW 1 mph 2 mph 68% 0 in 840.00 W/m2
13:58 83.1 °F 72.3 °F 29.86 in WSW 1 mph 2 mph 70% 0 in 849.00 W/m2
14:04 83.3 °F 71.6 °F 29.86 in WSW 2 mph 6 mph 68% 0 in 823.00 W/m2
14:08 83.6 °F 71.9 °F 29.86 in West 2 mph 6 mph 68% 0 in 838.00 W/m2
14:10 83.5 °F 71.8 °F 29.86 in WNW 2 mph 2 mph 68% 0 in 870.00 W/m2
14:12 83.7 °F 74.1 °F 29.86 in WNW 1 mph 2 mph 73% 0 in 835.00 W/m2
14:18 83.4 °F 72.6 °F 29.86 in WNW 1 mph 2 mph 70% 0 in 810.00 W/m2
14:26 84.3 °F 72.6 °F 29.86 in Calm   2 mph 68% 0 in 793.00 W/m2
14:34 84.1 °F 71.1 °F 29.86 in NW 1 mph 3 mph 65% 0 in 754.00 W/m2
14:38 84.4 °F 72.7 °F 29.86 in NW 1 mph 4 mph 68% 0 in 798.00 W/m2
14:44 84.1 °F 71.5 °F 29.86 in Calm   1 mph 66% 0 in 729.00 W/m2
14:48 84 °F 72.3 °F 29.85 in NW 1 mph 2 mph 68% 0 in 640.00 W/m2
14:54 84.7 °F 72.1 °F 29.85 in Calm   1 mph 66% 0 in 729.00 W/m2
14:58 84.9 °F 72.3 °F 29.85 in Calm   1 mph 66% 0 in 636.00 W/m2
15:04 84.9 °F 72.7 °F 29.86 in Calm     67% 0 in 673.00 W/m2
15:08 84.5 °F 73.2 °F 29.86 in Calm     69% 0 in 599.00 W/m2
15:14 84.7 °F 72.5 °F 29.86 in Calm   1 mph 67% 0 in 712.00 W/m2
15:18 85.3 °F 71.7 °F 29.86 in Calm   2 mph 64% 0 in 728.00 W/m2
15:24 85.3 °F 71.3 °F 29.85 in North 1 mph 3 mph 63% 0 in 608.00 W/m2
15:28 84.9 °F 69.9 °F 29.85 in NNW 1 mph 3 mph 61% 0 in 541.00 W/m2
15:34 85 °F 71.5 °F 29.85 in NNW 1 mph 2 mph 64% 0 in 589.00 W/m2
15:38 85.3 °F 71.3 °F 29.85 in Calm   2 mph 63% 0 in 654.00 W/m2
15:44 85.4 °F 70.4 °F 29.85 in NW 1 mph 4 mph 61% 0 in 619.00 W/m2
15:48 85.3 °F 70.3 °F 29.85 in NW 1 mph 4 mph 61% 0 in 636.00 W/m2
15:54 85.2 °F 68.8 °F 29.85 in NNW 1 mph 2 mph 58% 0 in 645.00 W/m2
15:58 85.5 °F 68.5 °F 29.85 in Calm   2 mph 57% 0 in 596.00 W/m2
16:04 85.6 °F 68.6 °F 29.85 in Calm   4 mph 57% 0 in 621.00 W/m2
16:08 85.5 °F 67.5 °F 29.85 in NNW 1 mph 4 mph 55% 0 in 615.00 W/m2
16:14 85.4 °F 67.9 °F 29.85 in West 1 mph 6 mph 56% 0 in 608.00 W/m2
16:18 85.5 °F 68 °F 29.85 in NNE 1 mph 6 mph 56% 0 in 452.00 W/m2
16:24 85.3 °F 68.8 °F 29.84 in Calm   2 mph 58% 0 in 427.00 W/m2
16:28 85.1 °F 67.6 °F 29.84 in NW 1 mph 4 mph 56% 0 in 547.00 W/m2
16:34 85.8 °F 67.8 °F 29.84 in Calm   1 mph 55% 0 in 582.00 W/m2
16:38 85.8 °F 67.2 °F 29.84 in Calm   1 mph 54% 0 in 483.00 W/m2
16:44 85.6 °F 68.6 °F 29.84 in West 1 mph 3 mph 57% 0 in 508.00 W/m2
16:48 85.8 °F 70.3 °F 29.84 in Calm   3 mph 60% 0 in 471.00 W/m2
16:54 85.6 °F 69.6 °F 29.84 in Calm     59% 0 in 297.00 W/m2
16:58 85.2 °F 67.7 °F 29.85 in NW 1 mph 6 mph 56% 0 in 225.00 W/m2
17:04 85.2 °F 69.3 °F 29.84 in WSW 1 mph 1 mph 59% 0 in 267.00 W/m2
17:08 84.9 °F 66.4 °F 29.84 in Calm   3 mph 54% 0 in 229.00 W/m2
Country Meadow, Clay, NY, USA
Compliments of Weather Underground - 2 mb